createdAt,value
2024-02-29T13:27:05.621Z,94310.00
2024-02-29T13:28:04.487Z,94308.00
2024-02-29T13:29:04.777Z,94299.00
2024-02-29T13:30:04.500Z,94292.00
2024-02-29T13:31:05.346Z,94288.00
2024-02-29T13:32:05.473Z,94287.00
2024-02-29T13:33:04.672Z,94297.00
2024-02-29T13:34:05.223Z,94302.00
2024-02-29T13:35:04.774Z,94301.00
2024-02-29T13:36:04.731Z,94294.00
2024-02-29T13:37:04.799Z,94284.00
2024-02-29T13:38:04.727Z,94281.00
2024-02-29T13:39:05.322Z,94286.00
2024-02-29T13:40:04.857Z,94288.00
2024-02-29T13:41:04.835Z,94289.00
2024-02-29T13:42:04.767Z,94282.00
2024-02-29T13:43:05.417Z,94275.00
2024-02-29T13:44:04.828Z,94273.00
2024-02-29T13:45:04.808Z,94273.00
2024-02-29T13:46:04.872Z,94277.00
2024-02-29T13:47:05.066Z,94275.00
2024-02-29T13:48:05.259Z,94279.00
2024-02-29T13:49:20.868Z,94268.00
2024-02-29T13:50:05.953Z,94256.00
2024-02-29T13:51:04.975Z,94255.00
2024-02-29T13:52:05.481Z,94261.00
2024-02-29T13:53:04.858Z,94258.00
2024-02-29T13:54:04.968Z,94253.00
2024-02-29T13:55:04.988Z,94249.00
2024-02-29T13:56:05.272Z,94249.00
2024-02-29T13:57:04.870Z,94244.00
2024-02-29T13:58:05.009Z,94245.00
2024-02-29T13:59:04.792Z,94243.00
2024-02-29T14:00:04.937Z,94239.00
2024-02-29T14:01:05.938Z,94239.00
2024-02-29T14:02:04.977Z,94244.00
2024-02-29T14:03:04.897Z,94245.00
2024-02-29T14:04:04.896Z,94245.00
2024-02-29T14:05:05.109Z,94234.00
2024-02-29T14:06:05.127Z,94223.00
2024-02-29T14:07:05.311Z,94209.00
2024-02-29T14:08:04.968Z,94215.00
2024-02-29T14:09:04.994Z,94215.00
2024-02-29T14:10:05.175Z,94217.00
2024-02-29T14:11:05.712Z,94218.00
2024-02-29T14:12:05.166Z,94211.00
2024-02-29T14:13:05.147Z,94206.00
2024-02-29T14:14:05.599Z,94207.00
2024-02-29T14:15:05.291Z,94200.00
2024-02-29T14:16:05.459Z,94203.00
2024-02-29T14:17:06.462Z,94207.00
2024-02-29T14:18:05.493Z,94201.00
2024-02-29T14:19:05.469Z,94191.00
2024-02-29T14:20:05.629Z,94200.00
2024-02-29T14:21:05.537Z,94209.00
2024-02-29T14:22:05.535Z,94208.00
2024-02-29T14:23:05.766Z,94203.00
2024-02-29T14:24:05.566Z,94192.00
2024-02-29T14:25:05.893Z,94190.00
2024-02-29T14:26:05.906Z,94184.00
2024-02-29T14:27:06.077Z,94185.00
2024-02-29T14:28:06.273Z,94187.00
2024-02-29T14:29:06.592Z,94195.00
2024-02-29T14:30:06.171Z,94195.00
2024-02-29T14:31:07.286Z,94186.00
2024-02-29T14:32:06.872Z,94181.00
2024-02-29T14:33:06.110Z,94184.00
2024-02-29T14:34:06.019Z,94184.00
2024-02-29T14:35:06.151Z,94194.00
2024-02-29T14:36:06.057Z,94197.00
2024-02-29T14:37:06.276Z,94192.00
2024-02-29T14:38:05.982Z,94183.00
2024-02-29T14:39:05.816Z,94186.00
2024-02-29T14:40:06.196Z,94185.00
2024-02-29T14:41:06.091Z,94185.00
2024-02-29T14:42:06.140Z,94183.00
2024-02-29T14:43:06.376Z,94187.00
2024-02-29T14:44:05.917Z,94192.00
2024-02-29T14:45:05.930Z,94198.00
2024-02-29T14:46:06.196Z,94181.00
2024-02-29T14:47:05.946Z,94162.00
2024-02-29T14:48:05.990Z,94169.00
2024-02-29T14:49:06.009Z,94164.00
2024-02-29T14:50:05.916Z,94174.00
2024-02-29T14:51:06.156Z,94177.00
2024-02-29T14:52:06.079Z,94180.00
2024-02-29T14:53:06.139Z,94163.00
2024-02-29T14:54:06.072Z,94175.00
2024-02-29T14:55:06.135Z,94177.00
2024-02-29T14:56:06.095Z,94178.00
2024-02-29T14:57:06.189Z,94175.00
2024-02-29T14:58:06.100Z,94173.00
2024-02-29T14:59:06.254Z,94179.00
2024-02-29T15:00:06.090Z,94182.00
2024-02-29T15:01:06.081Z,94154.00
2024-02-29T15:02:06.101Z,94170.00
2024-02-29T15:03:06.208Z,94179.00
2024-02-29T15:04:07.205Z,94181.00
2024-02-29T15:05:07.023Z,94161.00
2024-02-29T15:06:06.154Z,94167.00
2024-02-29T15:07:06.174Z,94168.00
2024-02-29T15:08:06.161Z,94153.00
2024-02-29T15:09:06.838Z,94157.00
2024-02-29T15:10:07.571Z,94153.00
2024-02-29T15:11:06.687Z,94149.00
2024-02-29T15:12:07.337Z,94151.00
2024-02-29T15:13:06.653Z,94145.00
2024-02-29T15:14:06.619Z,94153.00
2024-02-29T15:15:06.671Z,94158.00
2024-02-29T15:16:06.615Z,94156.00
2024-02-29T15:17:06.489Z,94149.00
2024-02-29T15:18:06.663Z,94160.00
2024-02-29T15:19:06.780Z,94148.00
2024-02-29T15:20:06.825Z,94149.00
2024-02-29T15:21:06.686Z,94152.00
2024-02-29T15:22:06.704Z,94147.00
2024-02-29T15:23:06.609Z,94128.00
2024-02-29T15:24:06.726Z,94153.00
2024-02-29T15:25:06.626Z,94146.00
2024-02-29T15:26:06.727Z,94141.00
2024-02-29T15:27:06.878Z,94153.00
2024-02-29T15:28:06.925Z,94149.00
2024-02-29T15:29:06.608Z,94139.00
2024-02-29T15:30:07.266Z,94146.00
2024-02-29T15:31:07.146Z,94133.00
2024-02-29T15:32:07.226Z,94135.00
2024-02-29T15:33:06.997Z,94142.00
2024-02-29T15:34:07.067Z,94146.00
2024-02-29T15:35:06.995Z,94142.00
2024-02-29T15:36:07.599Z,94134.00
2024-02-29T15:37:08.003Z,94140.00
2024-02-29T15:38:07.080Z,94142.00
2024-02-29T15:39:07.113Z,94137.00
2024-02-29T15:40:07.272Z,94134.00
2024-02-29T15:41:07.289Z,94134.00
2024-02-29T15:42:07.311Z,94128.00
2024-02-29T15:43:07.049Z,94144.00
2024-02-29T15:44:07.151Z,94141.00
2024-02-29T15:45:07.348Z,94145.00
2024-02-29T15:46:07.301Z,94131.00
2024-02-29T15:47:07.227Z,94125.00
2024-02-29T15:48:07.670Z,94131.00
2024-02-29T15:49:07.317Z,94138.00
2024-02-29T15:50:07.258Z,94139.00
2024-02-29T15:51:07.202Z,94142.00
2024-02-29T15:52:07.499Z,94137.00
2024-02-29T15:53:07.422Z,94125.00
2024-02-29T15:54:07.229Z,94135.00
2024-02-29T15:55:07.326Z,94127.00
2024-02-29T15:56:07.397Z,94133.00
2024-02-29T15:57:07.351Z,94134.00
2024-02-29T15:58:08.312Z,94124.00
2024-02-29T15:59:07.239Z,94124.00
2024-02-29T16:00:07.445Z,94126.00
2024-02-29T16:01:08.258Z,94126.00
2024-02-29T16:02:07.512Z,94113.00
2024-02-29T16:03:09.081Z,94115.00
2024-02-29T16:04:08.298Z,94108.00
2024-02-29T16:05:07.831Z,94121.00
2024-02-29T16:06:07.766Z,94117.00
2024-02-29T16:07:07.884Z,94117.00
2024-02-29T16:08:07.733Z,94117.00
2024-02-29T16:09:08.411Z,94119.00
2024-02-29T16:10:08.589Z,94117.00
2024-02-29T16:11:07.907Z,94108.00
2024-02-29T16:12:07.968Z,94106.00
2024-02-29T16:13:08.040Z,94103.00
2024-02-29T16:14:07.969Z,94107.00
2024-02-29T16:15:07.764Z,94105.00
2024-02-29T16:16:08.845Z,94104.00
2024-02-29T16:17:07.674Z,94101.00
2024-02-29T16:18:07.816Z,94113.00
2024-02-29T16:19:07.799Z,94104.00
2024-02-29T16:20:07.791Z,94108.00
2024-02-29T16:21:08.025Z,94109.00
2024-02-29T16:22:08.009Z,94111.00
2024-02-29T16:23:07.957Z,94106.00
2024-02-29T16:24:08.667Z,94105.00
2024-02-29T16:25:08.047Z,94105.00
2024-02-29T16:26:08.210Z,94103.00
2024-02-29T16:27:08.133Z,94102.00
2024-02-29T16:28:08.989Z,94104.00
2024-02-29T16:29:08.411Z,94106.00
2024-02-29T16:30:08.315Z,94101.00
2024-02-29T16:31:08.396Z,94092.00
2024-02-29T16:32:08.363Z,94090.00
2024-02-29T16:33:08.688Z,94095.00
2024-02-29T16:34:08.619Z,94097.00
2024-02-29T16:35:08.304Z,94098.00
2024-02-29T16:36:08.479Z,94092.00
2024-02-29T16:37:08.482Z,94101.00
2024-02-29T16:38:08.496Z,94099.00
2024-02-29T16:39:08.327Z,94105.00
2024-02-29T16:40:08.509Z,94107.00
2024-02-29T16:41:08.714Z,94093.00
2024-02-29T16:42:08.436Z,94090.00
2024-02-29T16:43:08.742Z,94090.00
2024-02-29T16:44:08.686Z,94095.00
2024-02-29T16:45:08.541Z,94098.00
2024-02-29T16:46:10.512Z,94095.00
2024-02-29T16:47:09.120Z,94101.00
2024-02-29T16:48:08.606Z,94101.00
2024-02-29T16:49:08.694Z,94095.00
2024-02-29T16:50:08.773Z,94103.00
2024-02-29T16:51:08.700Z,94100.00
2024-02-29T16:52:08.568Z,94093.00
2024-02-29T16:53:08.538Z,94104.00
2024-02-29T16:54:08.702Z,94104.00
2024-02-29T16:55:08.686Z,94099.00
2024-02-29T16:56:08.776Z,94100.00
2024-02-29T16:57:08.826Z,94099.00
2024-02-29T16:58:08.829Z,94096.00
2024-02-29T16:59:08.740Z,94095.00
2024-02-29T17:00:08.755Z,94100.00
2024-02-29T17:01:08.966Z,94094.00
2024-02-29T17:02:08.865Z,94095.00
2024-02-29T17:03:08.794Z,94093.00
2024-02-29T17:04:09.156Z,94103.00
2024-02-29T17:05:09.051Z,94104.00
2024-02-29T17:06:08.968Z,94102.00
2024-02-29T17:07:09.084Z,94095.00
2024-02-29T17:08:09.129Z,94097.00
2024-02-29T17:09:09.287Z,94099.00
2024-02-29T17:10:09.269Z,94094.00
2024-02-29T17:11:09.406Z,94094.00
2024-02-29T17:12:09.477Z,94099.00
2024-02-29T17:13:09.437Z,94086.00
2024-02-29T17:14:09.599Z,94105.00
2024-02-29T17:15:09.383Z,94095.00
2024-02-29T17:16:09.487Z,94094.00
2024-02-29T17:17:09.525Z,94093.00
2024-02-29T17:18:09.525Z,94092.00
2024-02-29T17:19:09.625Z,94094.00
2024-02-29T17:20:09.445Z,94100.00
2024-02-29T17:21:09.399Z,94103.00
2024-02-29T17:22:09.652Z,94106.00
2024-02-29T17:23:09.600Z,94103.00
2024-02-29T17:24:09.730Z,94096.00
2024-02-29T17:25:09.631Z,94088.00
2024-02-29T17:26:09.631Z,94099.00
2024-02-29T17:27:09.711Z,94104.00
2024-02-29T17:28:09.580Z,94101.00
2024-02-29T17:29:09.790Z,94095.00
2024-02-29T17:30:09.810Z,94091.00
2024-02-29T17:31:10.087Z,94091.00
2024-02-29T17:32:09.864Z,94084.00
2024-02-29T17:33:09.716Z,94091.00
2024-02-29T17:34:09.836Z,94100.00
2024-02-29T17:35:09.734Z,94094.00
2024-02-29T17:36:10.001Z,94091.00
2024-02-29T17:37:09.698Z,94087.00
2024-02-29T17:38:09.706Z,94091.00
2024-02-29T17:39:09.767Z,94093.00
2024-02-29T17:40:09.808Z,94089.00
2024-02-29T17:41:09.761Z,94093.00
2024-02-29T17:42:09.928Z,94090.00
2024-02-29T17:43:09.971Z,94092.00
2024-02-29T17:44:09.939Z,94092.00
2024-02-29T17:45:09.864Z,94088.00
2024-02-29T17:46:10.165Z,94091.00
2024-02-29T17:47:10.037Z,94092.00
2024-02-29T17:48:10.122Z,94090.00
2024-02-29T17:49:10.194Z,94094.00
2024-02-29T17:50:10.128Z,94091.00
2024-02-29T17:51:10.095Z,94092.00
2024-02-29T17:52:10.272Z,94093.00
2024-02-29T17:53:10.378Z,94092.00
2024-02-29T17:54:10.284Z,94088.00
2024-02-29T17:55:10.500Z,94082.00
2024-02-29T17:56:10.530Z,94078.00
2024-02-29T17:57:10.338Z,94073.00
2024-02-29T17:58:10.418Z,94075.00
2024-02-29T17:59:10.659Z,94075.00
2024-02-29T18:00:10.562Z,94079.00
2024-02-29T18:01:10.632Z,94080.00
2024-02-29T18:02:10.696Z,94079.00
2024-02-29T18:03:10.552Z,94080.00
2024-02-29T18:04:10.610Z,94073.00
2024-02-29T18:05:10.558Z,94070.00
2024-02-29T18:06:10.556Z,94071.00
2024-02-29T18:07:10.615Z,94071.00
2024-02-29T18:08:10.920Z,94070.00
2024-02-29T18:09:10.792Z,94075.00
2024-02-29T18:10:10.892Z,94075.00
2024-02-29T18:11:10.707Z,94074.00
2024-02-29T18:12:10.767Z,94079.00
2024-02-29T18:13:11.223Z,94083.00
2024-02-29T18:14:10.743Z,94089.00
2024-02-29T18:15:10.682Z,94086.00
2024-02-29T18:16:10.799Z,94078.00
2024-02-29T18:17:10.778Z,94072.00
2024-02-29T18:18:10.856Z,94074.00
2024-02-29T18:19:10.979Z,94075.00
2024-02-29T18:20:10.906Z,94078.00
2024-02-29T18:21:10.821Z,94080.00
2024-02-29T18:22:10.801Z,94079.00
2024-02-29T18:23:10.758Z,94079.00
2024-02-29T18:24:10.697Z,94082.00
2024-02-29T18:25:10.992Z,94081.00
2024-02-29T18:26:10.927Z,94083.00
2024-02-29T18:27:10.988Z,94079.00
2024-02-29T18:28:11.030Z,94080.00
2024-02-29T18:29:10.988Z,94082.00
2024-02-29T18:30:11.189Z,94085.00
2024-02-29T18:31:11.131Z,94081.00
2024-02-29T18:32:11.081Z,94078.00
2024-02-29T18:33:11.272Z,94077.00
2024-02-29T18:34:11.221Z,94074.00
2024-02-29T18:35:11.142Z,94075.00
2024-02-29T18:36:11.249Z,94074.00
2024-02-29T18:37:11.336Z,94077.00
2024-02-29T18:38:11.378Z,94079.00
2024-02-29T18:39:13.936Z,94079.00
2024-02-29T18:40:11.516Z,94083.00
2024-02-29T18:41:11.600Z,94084.00
2024-02-29T18:42:11.412Z,94082.00
2024-02-29T18:43:11.393Z,94079.00
2024-02-29T18:44:11.392Z,94081.00
2024-02-29T18:45:11.286Z,94076.00
2024-02-29T18:46:11.363Z,94076.00
2024-02-29T18:47:11.397Z,94072.00
2024-02-29T18:48:11.374Z,94076.00
2024-02-29T18:49:11.573Z,94081.00
2024-02-29T18:50:11.430Z,94086.00
2024-02-29T18:51:11.462Z,94085.00
2024-02-29T18:52:11.441Z,94085.00
2024-02-29T18:53:11.424Z,94090.00
2024-02-29T18:54:11.451Z,94092.00
2024-02-29T18:55:11.532Z,94093.00
2024-02-29T18:56:11.561Z,94094.00
2024-02-29T18:57:11.610Z,94090.00
2024-02-29T18:58:11.598Z,94084.00
2024-02-29T18:59:11.429Z,94084.00
2024-02-29T19:00:11.520Z,94083.00
2024-02-29T19:01:11.580Z,94084.00
2024-02-29T19:02:11.704Z,94081.00
2024-02-29T19:03:11.508Z,94079.00
2024-02-29T19:04:11.532Z,94080.00
2024-02-29T19:05:11.631Z,94076.00
2024-02-29T19:06:11.655Z,94077.00
2024-02-29T19:07:11.600Z,94081.00
2024-02-29T19:08:11.631Z,94082.00
2024-02-29T19:09:11.565Z,94083.00
2024-02-29T19:10:11.588Z,94082.00
2024-02-29T19:11:11.682Z,94080.00
2024-02-29T19:12:11.784Z,94084.00
2024-02-29T19:13:11.709Z,94083.00
2024-02-29T19:14:11.619Z,94081.00
2024-02-29T19:15:11.680Z,94073.00
2024-02-29T19:16:11.695Z,94070.00
2024-02-29T19:17:11.619Z,94068.00
2024-02-29T19:18:11.619Z,94073.00
2024-02-29T19:19:11.818Z,94071.00
2024-02-29T19:20:11.903Z,94075.00
2024-02-29T19:21:12.745Z,94074.00
2024-02-29T19:22:11.710Z,94073.00
2024-02-29T19:23:11.846Z,94070.00
2024-02-29T19:24:11.921Z,94070.00
2024-02-29T19:25:12.000Z,94066.00
2024-02-29T19:26:11.976Z,94068.00
2024-02-29T19:27:12.019Z,94066.00
2024-02-29T19:28:12.128Z,94065.00
2024-02-29T19:29:12.003Z,94063.00
2024-02-29T19:30:12.109Z,94059.00
2024-02-29T19:31:12.120Z,94060.00
2024-02-29T19:32:12.142Z,94065.00
2024-02-29T19:33:12.181Z,94067.00
2024-02-29T19:34:12.282Z,94069.00
2024-02-29T19:35:12.265Z,94065.00
2024-02-29T19:36:12.291Z,94064.00
2024-02-29T19:37:12.300Z,94065.00
2024-02-29T19:38:12.246Z,94071.00
2024-02-29T19:39:12.377Z,94074.00
2024-02-29T19:40:12.408Z,94070.00
2024-02-29T19:41:12.271Z,94065.00
2024-02-29T19:42:12.311Z,94063.00
2024-02-29T19:43:12.361Z,94067.00
2024-02-29T19:44:12.385Z,94071.00
2024-02-29T19:45:12.424Z,94072.00
2024-02-29T19:46:12.443Z,94071.00
2024-02-29T19:47:12.840Z,94064.00
2024-02-29T19:48:12.591Z,94060.00
2024-02-29T19:49:12.669Z,94063.00
2024-02-29T19:50:12.652Z,94069.00
2024-02-29T19:51:12.572Z,94066.00
2024-02-29T19:52:12.667Z,94063.00
2024-02-29T19:53:12.668Z,94067.00
2024-02-29T19:54:12.785Z,94068.00
2024-02-29T19:55:12.880Z,94062.00
2024-02-29T19:56:12.718Z,94061.00
2024-02-29T19:57:12.817Z,94066.00
2024-02-29T19:58:12.883Z,94072.00
2024-02-29T19:59:12.953Z,94070.00
2024-02-29T20:00:12.841Z,94067.00
2024-02-29T20:01:12.970Z,94062.00
2024-02-29T20:02:12.957Z,94064.00
2024-02-29T20:03:12.911Z,94064.00
2024-02-29T20:04:12.810Z,94066.00
2024-02-29T20:05:12.787Z,94068.00
2024-02-29T20:06:12.853Z,94069.00
2024-02-29T20:07:12.855Z,94068.00
2024-02-29T20:08:12.726Z,94064.00
2024-02-29T20:09:12.772Z,94060.00
2024-02-29T20:10:12.901Z,94049.00
2024-02-29T20:11:12.963Z,94046.00
2024-02-29T20:12:14.821Z,94056.00
2024-02-29T20:13:13.064Z,94056.00
2024-02-29T20:14:12.969Z,94057.00
2024-02-29T20:15:15.675Z,94059.00
2024-02-29T20:16:13.170Z,94057.00
2024-02-29T20:17:13.166Z,94063.00
2024-02-29T20:18:13.078Z,94065.00
2024-02-29T20:19:15.187Z,94064.00
2024-02-29T20:20:13.072Z,94060.00
2024-02-29T20:21:13.062Z,94058.00
2024-02-29T20:22:13.109Z,94061.00
2024-02-29T20:23:13.146Z,94062.00
2024-02-29T20:24:13.110Z,94066.00
2024-02-29T20:25:13.670Z,94070.00
2024-02-29T20:26:13.092Z,94072.00
2024-02-29T20:27:13.117Z,94073.00
2024-02-29T20:28:13.173Z,94075.00
2024-02-29T20:29:13.115Z,94075.00
2024-02-29T20:30:13.038Z,94070.00
2024-02-29T20:31:13.143Z,94064.00
2024-02-29T20:32:13.141Z,94068.00
2024-02-29T20:33:13.185Z,94075.00
2024-02-29T20:34:13.938Z,94076.00
2024-02-29T20:35:13.060Z,94071.00
2024-02-29T20:36:13.088Z,94063.00
2024-02-29T20:37:13.118Z,94065.00
2024-02-29T20:38:13.065Z,94074.00
2024-02-29T20:39:13.152Z,94079.00
2024-02-29T20:40:13.174Z,94081.00
2024-02-29T20:41:13.064Z,94081.00
2024-02-29T20:42:13.244Z,94083.00
2024-02-29T20:43:13.174Z,94080.00
2024-02-29T20:44:13.129Z,94073.00
2024-02-29T20:45:16.195Z,94069.00
2024-02-29T20:46:13.198Z,94068.00
2024-02-29T20:47:13.151Z,94070.00
2024-02-29T20:48:14.841Z,94073.00
2024-02-29T20:49:13.012Z,94073.00
2024-02-29T20:50:13.164Z,94073.00
2024-02-29T20:51:13.166Z,94070.00
2024-02-29T20:52:16.474Z,94067.00
2024-02-29T20:53:13.207Z,94065.00
2024-02-29T20:54:13.005Z,94067.00
2024-02-29T20:55:13.162Z,94062.00
2024-02-29T20:56:13.095Z,94061.00
2024-02-29T20:57:13.221Z,94057.00
2024-02-29T20:58:13.243Z,94060.00
2024-02-29T20:59:13.127Z,94058.00
2024-02-29T21:00:13.533Z,94060.00
2024-02-29T21:01:13.206Z,94060.00
2024-02-29T21:02:13.350Z,94053.00
2024-02-29T21:03:13.254Z,94052.00
2024-02-29T21:04:13.202Z,94048.00
2024-02-29T21:05:13.150Z,94047.00
2024-02-29T21:06:13.185Z,94048.00
2024-02-29T21:07:13.203Z,94051.00
2024-02-29T21:08:13.184Z,94056.00
2024-02-29T21:09:13.199Z,94058.00
2024-02-29T21:10:13.227Z,94059.00
2024-02-29T21:11:13.882Z,94058.00
2024-02-29T21:12:13.194Z,94056.00
2024-02-29T21:13:15.924Z,94050.00
2024-02-29T21:14:13.217Z,94046.00
2024-02-29T21:15:13.255Z,94046.00
2024-02-29T21:16:13.345Z,94048.00
2024-02-29T21:17:13.164Z,94053.00
2024-02-29T21:18:13.293Z,94056.00
2024-02-29T21:19:13.240Z,94057.00
2024-02-29T21:20:13.313Z,94055.00
2024-02-29T21:21:14.198Z,94053.00
2024-02-29T21:22:13.336Z,94056.00
2024-02-29T21:23:13.114Z,94059.00
2024-02-29T21:24:13.104Z,94060.00
2024-02-29T21:25:13.485Z,94063.00
2024-02-29T21:26:13.276Z,94065.00
2024-02-29T21:27:13.262Z,94064.00
2024-02-29T21:28:13.256Z,94061.00
2024-02-29T21:29:13.302Z,94059.00
2024-02-29T21:30:13.232Z,94056.00
2024-02-29T21:31:13.277Z,94058.00
2024-02-29T21:32:13.761Z,94059.00
2024-02-29T21:33:13.293Z,94058.00
2024-02-29T21:34:13.296Z,94055.00
2024-02-29T21:35:13.213Z,94054.00
2024-02-29T21:36:13.262Z,94057.00
2024-02-29T21:37:13.846Z,94061.00
2024-02-29T21:38:13.307Z,94063.00
2024-02-29T21:39:13.911Z,94060.00
2024-02-29T21:40:13.546Z,94052.00
2024-02-29T21:41:13.349Z,94045.00
2024-02-29T21:42:13.395Z,94048.00
2024-02-29T21:43:13.334Z,94052.00
2024-02-29T21:44:13.304Z,94053.00
2024-02-29T21:45:13.294Z,94056.00
2024-02-29T21:46:13.360Z,94060.00
2024-02-29T21:47:13.352Z,94056.00
2024-02-29T21:48:13.434Z,94055.00
2024-02-29T21:49:13.450Z,94052.00
2024-02-29T21:50:13.406Z,94052.00
2024-02-29T21:51:13.347Z,94058.00
2024-02-29T21:52:13.383Z,94056.00
2024-02-29T21:53:13.292Z,94056.00
2024-02-29T21:54:13.284Z,94050.00
2024-02-29T21:55:13.456Z,94052.00
2024-02-29T21:56:13.327Z,94051.00
2024-02-29T21:57:15.289Z,94054.00
2024-02-29T21:58:13.390Z,94055.00
2024-02-29T21:59:13.329Z,94054.00
2024-02-29T22:00:13.299Z,94052.00
2024-02-29T22:01:13.441Z,94049.00
2024-02-29T22:02:13.420Z,94050.00
2024-02-29T22:03:13.305Z,94046.00
2024-02-29T22:04:13.424Z,94045.00
2024-02-29T22:05:13.434Z,94050.00
2024-02-29T22:06:13.400Z,94052.00
2024-02-29T22:07:13.428Z,94053.00
2024-02-29T22:08:13.372Z,94052.00
2024-02-29T22:09:13.468Z,94049.00
2024-02-29T22:10:13.445Z,94057.00
2024-02-29T22:11:13.315Z,94061.00
2024-02-29T22:12:13.484Z,94056.00
2024-02-29T22:13:13.511Z,94058.00
2024-02-29T22:14:14.990Z,94062.00
2024-02-29T22:15:13.243Z,94062.00
2024-02-29T22:16:13.358Z,94056.00
2024-02-29T22:17:13.355Z,94049.00
2024-02-29T22:18:13.362Z,94050.00
2024-02-29T22:19:13.368Z,94050.00
2024-02-29T22:20:13.274Z,94046.00
2024-02-29T22:21:13.266Z,94049.00
2024-02-29T22:22:13.470Z,94050.00
2024-02-29T22:23:13.285Z,94054.00
2024-02-29T22:24:15.816Z,94055.00
2024-02-29T22:25:13.331Z,94054.00
2024-02-29T22:26:13.417Z,94048.00
2024-02-29T22:27:13.392Z,94045.00
2024-02-29T22:28:13.369Z,94049.00
2024-02-29T22:29:13.349Z,94051.00
2024-02-29T22:30:13.332Z,94052.00
2024-02-29T22:31:13.480Z,94052.00
2024-02-29T22:32:13.365Z,94053.00
2024-02-29T22:33:13.371Z,94056.00
2024-02-29T22:34:13.407Z,94054.00
2024-02-29T22:35:13.413Z,94055.00
2024-02-29T22:36:13.419Z,94051.00
2024-02-29T22:37:14.848Z,94048.00
2024-02-29T22:38:13.333Z,94043.00
2024-02-29T22:39:13.310Z,94042.00
2024-02-29T22:40:13.304Z,94048.00
2024-02-29T22:41:13.340Z,94050.00
2024-02-29T22:42:13.545Z,94053.00
2024-02-29T22:43:13.574Z,94050.00
2024-02-29T22:44:13.507Z,94051.00
2024-02-29T22:45:13.835Z,94048.00
2024-02-29T22:46:13.811Z,94042.00
2024-02-29T22:47:13.645Z,94042.00
2024-02-29T22:48:13.714Z,94041.00
2024-02-29T22:49:13.649Z,94042.00
2024-02-29T22:50:13.792Z,94046.00
2024-02-29T22:51:13.786Z,94051.00
2024-02-29T22:52:13.939Z,94049.00
2024-02-29T22:53:13.868Z,94049.00
2024-02-29T22:54:13.996Z,94049.00
2024-02-29T22:55:14.037Z,94045.00
2024-02-29T22:56:14.123Z,94041.00
2024-02-29T22:57:14.130Z,94040.00
2024-02-29T22:58:14.174Z,94038.00
2024-02-29T22:59:14.030Z,94029.00
2024-02-29T23:00:14.172Z,94027.00
2024-02-29T23:01:14.188Z,94024.00
2024-02-29T23:02:14.806Z,94028.00
2024-02-29T23:03:13.988Z,94032.00
2024-02-29T23:04:14.128Z,94038.00
2024-02-29T23:05:14.138Z,94039.00
2024-02-29T23:06:14.378Z,94037.00
2024-02-29T23:07:14.460Z,94035.00
2024-02-29T23:08:14.130Z,94033.00
2024-02-29T23:09:14.297Z,94031.00
2024-02-29T23:10:14.349Z,94031.00
2024-02-29T23:11:15.029Z,94028.00
2024-02-29T23:12:14.432Z,94023.00
2024-02-29T23:13:14.406Z,94020.00
2024-02-29T23:14:14.441Z,94016.00
2024-02-29T23:15:14.684Z,94014.00
2024-02-29T23:16:14.692Z,94017.00
2024-02-29T23:17:14.578Z,94015.00
2024-02-29T23:18:14.583Z,94015.00
2024-02-29T23:19:14.582Z,94018.00
2024-02-29T23:20:14.585Z,94017.00
2024-02-29T23:21:14.773Z,94016.00
2024-02-29T23:22:14.760Z,94014.00
2024-02-29T23:23:14.665Z,94012.00
2024-02-29T23:24:14.713Z,94008.00
2024-02-29T23:25:14.822Z,94010.00
2024-02-29T23:26:14.620Z,94008.00
2024-02-29T23:27:14.793Z,94010.00
2024-02-29T23:28:14.715Z,94010.00
2024-02-29T23:29:14.834Z,94013.00
2024-02-29T23:30:14.759Z,94014.00
2024-02-29T23:31:14.756Z,94013.00
2024-02-29T23:32:14.820Z,94014.00
2024-02-29T23:33:14.833Z,94011.00
2024-02-29T23:34:14.733Z,94010.00
2024-02-29T23:35:14.739Z,94010.00
2024-02-29T23:36:14.732Z,94013.00
2024-02-29T23:37:14.772Z,94015.00
2024-02-29T23:38:14.707Z,94017.00
2024-02-29T23:39:14.823Z,94020.00
2024-02-29T23:40:14.882Z,94021.00
2024-02-29T23:41:14.930Z,94023.00
2024-02-29T23:42:15.077Z,94024.00
2024-02-29T23:43:15.070Z,94026.00
2024-02-29T23:44:15.077Z,94023.00
2024-02-29T23:45:15.213Z,94034.00
2024-02-29T23:46:15.176Z,94034.00
2024-02-29T23:47:15.175Z,94037.00
2024-02-29T23:48:16.266Z,94034.00
2024-02-29T23:49:15.370Z,94031.00
2024-02-29T23:50:15.297Z,94030.00
2024-02-29T23:51:15.369Z,94032.00
2024-02-29T23:52:15.466Z,94028.00
2024-02-29T23:53:15.490Z,94030.00
2024-02-29T23:54:15.469Z,94026.00
2024-02-29T23:55:15.592Z,94024.00
2024-02-29T23:56:15.588Z,94022.00
2024-02-29T23:57:15.918Z,94020.00
2024-02-29T23:58:15.889Z,94023.00
2024-02-29T23:59:15.785Z,94023.00
